This is the latest recevied weather packets stored in our database for station/object N5ZP. If no packets are shown the sender has not sent any weather packets the latest 10 day(s).
| Time | Temp. | Humidity | Pressure | Rain* | Wind** | Luminosity | Snow |
|---|---|---|---|---|---|---|---|
| 1777403698 | 29.44° C | 75% | 1006.7 hPa | 0 mm | - | 377 W/m² | - |
| 1777403397 | 30° C | 73% | 1006.7 hPa | 0 mm | - | 414 W/m² | - |
| 1777403091 | 30° C | 74% | 1007.1 hPa | 0 mm | - | 271 W/m² | - |
| 1777402787 | 30° C | 73% | 1007.1 hPa | 0 mm | - | 495 W/m² | - |
| 1777402484 | 29.44° C | 76% | 1007.1 hPa | 0 mm | - | 268 W/m² | - |
| 1777402182 | 28.89° C | 78% | 1007.6 hPa | 0 mm | - | 333 W/m² | - |
| 1777401876 | 28.89° C | 76% | 1007.6 hPa | 0 mm | - | 253 W/m² | - |
| 1777401575 | 29.44° C | 74% | 1007.7 hPa | 0 mm | - | 641 W/m² | - |
| 1777401271 | 28.89° C | 77% | 1007.6 hPa | 0 mm | - | 352 W/m² | - |
| 1777400967 | 28.89° C | 77% | 1007.8 hPa | 0 mm | - | 294 W/m² | - |
| 1777400663 | 29.44° C | 74% | 1007.7 hPa | 0 mm | - | 286 W/m² | - |
| 1777400361 | 29.44° C | 76% | 1007.9 hPa | 0 mm | - | 781 W/m² | - |
| 1777400056 | 29.44° C | 75% | 1007.9 hPa | 0 mm | - | 304 W/m² | - |
| 1777399754 | 28.89° C | 76% | 1007.8 hPa | 0 mm | - | 410 W/m² | - |
| 1777399450 | 28.89° C | 76% | 1008 hPa | 0 mm | - | 520 W/m² | - |
| 1777399149 | 28.89° C | 76% | 1008.2 hPa | 0 mm | - | 326 W/m² | - |
| 1777398845 | 28.33° C | 78% | 1008.5 hPa | 0 mm | - | 670 W/m² | - |
| 1777398542 | 28.89° C | 78% | 1008.5 hPa | 0 mm | - | 377 W/m² | - |
| 1777398239 | 28.33° C | 78% | 1008.6 hPa | 0 mm | - | 333 W/m² | - |
| 1777397936 | 28.33° C | 79% | 1008.7 hPa | 0 mm | - | 273 W/m² | - |
| 1777397631 | 28.33° C | 78% | 1008.7 hPa | 0 mm | - | 231 W/m² | - |
| 1777397328 | 28.33° C | 80% | 1008.7 hPa | 0 mm | - | 405 W/m² | - |
| 1777397024 | 28.33° C | 79% | 1008.6 hPa | 0 mm | - | 288 W/m² | - |
| 1777396722 | 28.33° C | 78% | 1008.7 hPa | 0 mm | - | 305 W/m² | - |
| 1777396418 | 27.78° C | 80% | 1008.7 hPa | 0 mm | - | 537 W/m² | - |
* Rain latest hour (hover to see other rain measurements)
** Current wind speed in m/s (hover to see current wind gust speed)